Time;durP1;ratioP1;P1;durP2;ratioP2;P2;SDS_P1;SDS_P2;PMS_P1;PMS_P2;Temp;Humidity;BMP_temperature;BMP_pressure;BME280_temperature;BME280_humidity;BME280_pressure;Samples;Min_cycle;Max_cycle;Signal;HPM_P1;HPM_P2
2024/01/02 00:01:04;;;;;;;;;;;28.80;99.90;;;;;;5114731;28;19908;-66
2024/01/02 00:03:30;;;;;;;;;;;28.70;99.90;;;;;;5114497;28;19914;-65
2024/01/02 00:05:57;;;;;;;;;;;28.60;99.90;;;;;;5114583;28;19914;-66
2024/01/02 00:08:23;;;;;;;;;;;28.80;99.90;;;;;;5114726;28;19907;-67
2024/01/02 00:10:50;;;;;;;;;;;28.80;99.90;;;;;;5114679;28;19907;-66
2024/01/02 00:13:17;;;;;;;;;;;28.90;99.90;;;;;;5113877;28;19914;-66
2024/01/02 00:15:43;;;;;;;;;;;29.00;99.90;;;;;;5114587;28;20158;-67
2024/01/02 00:18:10;;;;;;;;;;;28.90;99.90;;;;;;5114460;28;19952;-66
2024/01/02 00:20:36;;;;;;;;;;;29.00;99.90;;;;;;5114137;28;20346;-67
2024/01/02 00:23:03;;;;;;;;;;;28.90;99.90;;;;;;5114491;28;19912;-66
2024/01/02 00:25:30;;;;;;;;;;;28.80;99.90;;;;;;5114488;28;19907;-67
2024/01/02 00:27:57;;;;;;;;;;;28.80;99.90;;;;;;5096129;28;19915;-67
2024/01/02 00:30:24;;;;;;;;;;;28.70;99.90;;;;;;5114191;28;19915;-66
2024/01/02 00:32:50;;;;;;;;;;;28.60;99.90;;;;;;5114334;28;19908;-66
2024/01/02 00:35:17;;;;;;;;;;;28.50;99.90;;;;;;5114310;28;19908;-68
2024/01/02 00:37:44;;;;;;;;;;;28.40;99.90;;;;;;5114255;28;19936;-70
2024/01/02 00:40:10;;;;;;;;;;;28.50;99.90;;;;;;5114002;28;20319;-71
2024/01/02 00:42:38;;;;;;;;;;;28.40;99.90;;;;;;5114184;28;19914;-70
2024/01/02 00:45:05;;;;;;;;;;;28.30;99.90;;;;;;5114046;28;20693;-73
2024/01/02 00:47:31;;;;;;;;;;;28.30;99.90;;;;;;5113822;28;20360;-67
2024/01/02 00:49:58;;;;;;;;;;;28.40;99.90;;;;;;5113976;28;19916;-72
2024/01/02 00:52:25;;;;;;;;;;;28.30;99.90;;;;;;5113815;28;19908;-68
2024/01/02 00:54:52;;;;;;;;;;;28.30;99.90;;;;;;5113493;28;19942;-67
2024/01/02 00:57:19;;;;;;;;;;;28.00;99.90;;;;;;5113638;28;19908;-65
2024/01/02 00:59:45;;;;;;;;;;;27.90;99.90;;;;;;5113719;28;19968;-66
2024/01/02 01:02:15;;;;;;;;;;;28.00;99.90;;;;;;5112900;28;20193;-70
2024/01/02 01:04:43;;;;;;;;;;;28.10;99.90;;;;;;5113785;28;19907;-67
2024/01/02 01:07:10;;;;;;;;;;;28.10;99.90;;;;;;5113421;28;20002;-67
2024/01/02 01:09:36;;;;;;;;;;;28.10;99.90;;;;;;5113574;28;19912;-68
2024/01/02 01:12:04;;;;;;;;;;;28.40;99.90;;;;;;5113213;28;20006;-67
2024/01/02 01:14:30;;;;;;;;;;;28.40;99.90;;;;;;5113247;28;19955;-68
2024/01/02 01:16:57;;;;;;;;;;;28.60;99.90;;;;;;5113491;28;19922;-71
2024/01/02 01:19:24;;;;;;;;;;;28.70;99.90;;;;;;5113206;28;19969;-68
2024/01/02 01:21:51;;;;;;;;;;;28.70;99.90;;;;;;5113029;28;19908;-67
2024/01/02 01:24:18;;;;;;;;;;;28.80;99.90;;;;;;5113115;28;19915;-67
2024/01/02 01:26:45;;;;;;;;;;;28.90;99.90;;;;;;5095150;28;20241;-66
2024/01/02 01:29:12;;;;;;;;;;;29.10;99.90;;;;;;5113276;28;20353;-70
2024/01/02 01:31:38;;;;;;;;;;;29.10;99.90;;;;;;5113040;28;20388;-66
2024/01/02 01:34:05;;;;;;;;;;;29.10;99.90;;;;;;5112855;28;19953;-68
2024/01/02 01:36:32;;;;;;;;;;;29.10;99.90;;;;;;5094692;28;19947;-66
2024/01/02 01:38:58;;;;;;;;;;;29.30;99.90;;;;;;5113093;28;19916;-67
2024/01/02 01:41:25;;;;;;;;;;;29.30;99.90;;;;;;5113080;28;19911;-68
2024/01/02 01:43:52;;;;;;;;;;;29.30;99.90;;;;;;5112878;28;19908;-66
2024/01/02 01:46:18;;;;;;;;;;;29.20;99.90;;;;;;5113233;28;19907;-68
2024/01/02 01:48:45;;;;;;;;;;;29.50;99.90;;;;;;5099928;28;20289;-68
2024/01/02 01:51:12;;;;;;;;;;;29.70;99.90;;;;;;5092608;28;20428;-69
2024/01/02 01:53:39;;;;;;;;;;;29.80;99.90;;;;;;5092454;28;20331;-66
2024/01/02 01:56:07;;;;;;;;;;;29.90;99.90;;;;;;5092611;28;20315;-68
2024/01/02 01:58:34;;;;;;;;;;;29.90;99.90;;;;;;5092694;28;19919;-68
2024/01/02 02:01:00;;;;;;;;;;;30.10;99.90;;;;;;5092618;28;19938;-68
2024/01/02 02:03:28;;;;;;;;;;;30.10;99.90;;;;;;5092690;28;20276;-68
2024/01/02 02:05:54;;;;;;;;;;;30.00;99.90;;;;;;5076397;28;19910;-68
2024/01/02 02:08:21;;;;;;;;;;;30.00;99.90;;;;;;5091820;28;19930;-68
2024/01/02 02:10:48;;;;;;;;;;;29.70;99.90;;;;;;5092374;28;19915;-67
2024/01/02 02:13:14;;;;;;;;;;;29.90;99.90;;;;;;5092403;28;19952;-67
2024/01/02 02:15:42;;;;;;;;;;;29.70;99.90;;;;;;5092376;28;19912;-68
2024/01/02 02:18:09;;;;;;;;;;;29.50;99.90;;;;;;5098272;28;20276;-67
2024/01/02 02:20:35;;;;;;;;;;;29.60;99.90;;;;;;5112312;28;19920;-67
2024/01/02 02:23:02;;;;;;;;;;;30.10;99.90;;;;;;5112439;28;19954;-66
2024/01/02 02:25:29;;;;;;;;;;;30.40;99.90;;;;;;5112800;28;20383;-68
2024/01/02 02:27:58;;;;;;;;;;;30.40;99.90;;;;;;5112265;28;19918;-69
2024/01/02 02:30:25;;;;;;;;;;;30.60;99.90;;;;;;5112578;28;19908;-68
2024/01/02 02:32:54;;;;;;;;;;;30.90;99.90;;;;;;5112663;28;19908;-67
2024/01/02 02:35:21;;;;;;;;;;;30.80;99.90;;;;;;5111235;28;20581;-70
2024/01/02 02:37:48;;;;;;;;;;;31.20;99.90;;;;;;5116479;28;19922;-68
2024/01/02 02:40:15;;;;;;;;;;;31.40;99.40;;;;;;5115609;28;20008;-68
2024/01/02 02:42:41;;;;;;;;;;;31.30;99.50;;;;;;5099682;28;20384;-69
2024/01/02 02:45:14;;;;;;;;;;;31.00;99.80;;;;;;5095715;28;19985;-68
2024/01/02 02:47:42;;;;;;;;;;;31.30;99.60;;;;;;5095900;28;20007;-69
2024/01/02 02:50:09;;;;;;;;;;;31.40;99.00;;;;;;5095557;28;19950;-68
2024/01/02 02:52:39;;;;;;;;;;;31.50;98.60;;;;;;5095847;28;19953;-70
2024/01/02 02:55:08;;;;;;;;;;;31.60;98.50;;;;;;5095610;28;19924;-69
2024/01/02 02:57:35;;;;;;;;;;;31.60;98.60;;;;;;5095532;28;20019;-68
2024/01/02 03:00:03;;;;;;;;;;;31.70;99.00;;;;;;5094953;28;19923;-68
2024/01/02 03:02:30;;;;;;;;;;;32.00;98.70;;;;;;5095215;28;19931;-68
2024/01/02 03:04:58;;;;;;;;;;;32.40;98.20;;;;;;5097802;28;19919;-69
2024/01/02 03:07:25;;;;;;;;;;;32.70;97.60;;;;;;5102493;28;19914;-69
2024/01/02 03:09:52;;;;;;;;;;;33.00;97.30;;;;;;5091650;28;19908;-68
2024/01/02 03:12:22;;;;;;;;;;;33.30;96.60;;;;;;5094071;28;20414;-69
2024/01/02 03:14:52;;;;;;;;;;;33.40;95.90;;;;;;5093918;28;19961;-68
2024/01/02 03:17:19;;;;;;;;;;;33.20;96.70;;;;;;5076504;28;19957;-68
2024/01/02 03:19:47;;;;;;;;;;;33.70;96.10;;;;;;5095021;28;19920;-69
2024/01/02 03:22:13;;;;;;;;;;;34.60;94.80;;;;;;5095050;28;20279;-69
2024/01/02 03:24:40;;;;;;;;;;;34.80;94.80;;;;;;5094996;28;19908;-69
2024/01/02 03:27:06;;;;;;;;;;;35.00;93.40;;;;;;5093814;28;19908;-69
2024/01/02 03:29:33;;;;;;;;;;;35.10;93.80;;;;;;5094700;28;19915;-69
2024/01/02 03:32:00;;;;;;;;;;;35.70;92.90;;;;;;5094509;28;19947;-69
2024/01/02 03:34:26;;;;;;;;;;;36.10;92.50;;;;;;5094571;28;20472;-68
2024/01/02 03:36:53;;;;;;;;;;;36.60;91.80;;;;;;5094927;28;19908;-68
2024/01/02 03:39:19;;;;;;;;;;;36.60;91.70;;;;;;5094630;28;19916;-68
2024/01/02 03:41:46;;;;;;;;;;;36.90;92.10;;;;;;5094739;28;20345;-66
2024/01/02 03:44:13;;;;;;;;;;;37.30;91.30;;;;;;5094595;28;19908;-66
2024/01/02 03:46:39;;;;;;;;;;;37.40;90.90;;;;;;5093419;28;19915;-66
2024/01/02 03:49:06;;;;;;;;;;;38.00;90.20;;;;;;5094065;28;19931;-69
2024/01/02 03:51:32;;;;;;;;;;;37.90;90.20;;;;;;5075854;28;20387;-68
2024/01/02 03:53:59;;;;;;;;;;;37.80;90.10;;;;;;5094560;28;20364;-67
2024/01/02 03:56:26;;;;;;;;;;;37.90;89.50;;;;;;5076508;28;20280;-67
2024/01/02 03:58:53;;;;;;;;;;;37.90;89.90;;;;;;5094818;28;19916;-66
2024/01/02 04:01:19;;;;;;;;;;;38.60;88.70;;;;;;5094746;28;19908;-67
2024/01/02 04:03:46;;;;;;;;;;;39.00;88.30;;;;;;5094858;28;20365;-68
2024/01/02 04:06:13;;;;;;;;;;;38.70;85.70;;;;;;5102337;28;19912;-69
2024/01/02 04:08:39;;;;;;;;;;;38.20;87.00;;;;;;5104539;28;19954;-68
2024/01/02 04:11:07;;;;;;;;;;;37.90;87.50;;;;;;5113867;28;19908;-68
2024/01/02 04:13:33;;;;;;;;;;;37.90;87.50;;;;;;5113189;28;19912;-68
2024/01/02 04:16:00;;;;;;;;;;;37.60;89.00;;;;;;5114070;28;19907;-68
2024/01/02 04:18:26;;;;;;;;;;;38.10;87.00;;;;;;5114609;28;19933;-67
2024/01/02 04:20:53;;;;;;;;;;;37.60;86.60;;;;;;5114431;28;19956;-67
2024/01/02 04:23:20;;;;;;;;;;;36.80;89.10;;;;;;5113535;28;19908;-67
2024/01/02 04:25:46;;;;;;;;;;;37.00;89.20;;;;;;5114152;28;19914;-67
2024/01/02 04:28:13;;;;;;;;;;;37.50;88.60;;;;;;5114414;28;19915;-68
2024/01/02 04:30:39;;;;;;;;;;;37.70;86.70;;;;;;5114185;28;20549;-68
2024/01/02 04:33:06;;;;;;;;;;;37.50;86.60;;;;;;5114159;28;20041;-68
2024/01/02 04:35:33;;;;;;;;;;;37.00;87.00;;;;;;5113516;28;19960;-66
2024/01/02 04:38:00;;;;;;;;;;;37.10;87.90;;;;;;5114361;28;19907;-68
2024/01/02 04:40:26;;;;;;;;;;;37.00;87.10;;;;;;5113614;28;20368;-68
2024/01/02 04:42:53;;;;;;;;;;;36.80;87.60;;;;;;5113780;28;19908;-68
2024/01/02 04:45:19;;;;;;;;;;;36.30;88.80;;;;;;5113980;28;19998;-68
2024/01/02 04:47:46;;;;;;;;;;;36.70;88.00;;;;;;5113920;28;20006;-68
2024/01/02 04:50:13;;;;;;;;;;;36.50;89.10;;;;;;5113518;28;20023;-68
2024/01/02 04:52:39;;;;;;;;;;;36.50;87.90;;;;;;5113741;28;19910;-67
2024/01/02 04:55:06;;;;;;;;;;;36.40;87.80;;;;;;5113437;28;19965;-68
2024/01/02 04:57:33;;;;;;;;;;;36.70;87.80;;;;;;5113167;28;19907;-69
2024/01/02 04:59:59;;;;;;;;;;;36.90;85.90;;;;;;5095138;28;19915;-67
2024/01/02 05:02:26;;;;;;;;;;;36.70;85.30;;;;;;5113618;28;19907;-69
2024/01/02 05:04:53;;;;;;;;;;;36.00;88.10;;;;;;5113422;28;19908;-68
2024/01/02 05:07:19;;;;;;;;;;;36.20;87.30;;;;;;5113732;28;19908;-66
2024/01/02 05:09:46;;;;;;;;;;;36.40;86.80;;;;;;5113608;28;20318;-68
2024/01/02 05:12:15;;;;;;;;;;;36.70;87.20;;;;;;5113396;28;19908;-70
2024/01/02 05:14:41;;;;;;;;;;;36.90;86.20;;;;;;5112711;28;20381;-69
2024/01/02 05:17:09;;;;;;;;;;;37.20;85.70;;;;;;5113402;28;19994;-68
2024/01/02 05:19:37;;;;;;;;;;;37.00;85.70;;;;;;5113088;28;19916;-67
2024/01/02 05:22:03;;;;;;;;;;;36.60;85.70;;;;;;5113469;28;20044;-68
2024/01/02 05:24:30;;;;;;;;;;;36.50;86.60;;;;;;5113766;28;19908;-67
2024/01/02 05:26:57;;;;;;;;;;;37.40;85.30;;;;;;5113381;28;19908;-67
2024/01/02 05:29:24;;;;;;;;;;;37.10;84.60;;;;;;5113383;28;19915;-70
2024/01/02 05:31:50;;;;;;;;;;;36.70;85.20;;;;;;5093972;28;19996;-68
2024/01/02 05:34:17;;;;;;;;;;;36.50;86.70;;;;;;5094843;28;19922;-67
2024/01/02 05:36:46;;;;;;;;;;;36.40;86.60;;;;;;5113182;28;19907;-67
2024/01/02 05:39:13;;;;;;;;;;;36.50;87.30;;;;;;5113125;28;19916;-68
2024/01/02 05:41:39;;;;;;;;;;;36.00;87.80;;;;;;5112178;28;20280;-68
2024/01/02 05:44:06;;;;;;;;;;;35.90;89.10;;;;;;5113025;28;19953;-69
2024/01/02 05:46:33;;;;;;;;;;;35.80;88.40;;;;;;5113192;28;19934;-69
2024/01/02 05:48:59;;;;;;;;;;;35.60;89.30;;;;;;5111961;28;19908;-69
2024/01/02 05:51:26;;;;;;;;;;;35.20;88.20;;;;;;5112440;28;20259;-68
2024/01/02 05:53:53;;;;;;;;;;;35.20;89.50;;;;;;5112885;28;19911;-68
2024/01/02 05:56:20;;;;;;;;;;;35.00;90.20;;;;;;5113027;28;20366;-68
2024/01/02 05:58:46;;;;;;;;;;;34.70;90.00;;;;;;5112130;28;19919;-68
2024/01/02 06:01:13;;;;;;;;;;;34.40;90.80;;;;;;5112550;28;19965;-68
2024/01/02 06:03:39;;;;;;;;;;;33.90;90.90;;;;;;5112938;28;20398;-67
2024/01/02 06:06:07;;;;;;;;;;;32.80;92.20;;;;;;5112563;28;19908;-67
2024/01/02 06:08:33;;;;;;;;;;;31.70;93.80;;;;;;5112281;28;20257;-68
2024/01/02 06:11:00;;;;;;;;;;;31.40;94.10;;;;;;5114113;28;19907;-67
2024/01/02 06:13:28;;;;;;;;;;;31.30;95.00;;;;;;5116609;28;19931;-66
2024/01/02 06:15:54;;;;;;;;;;;31.30;94.30;;;;;;5117017;28;19931;-68
2024/01/02 06:18:21;;;;;;;;;;;31.00;94.70;;;;;;5117024;28;19915;-70
2024/01/02 06:20:48;;;;;;;;;;;30.90;95.40;;;;;;5116845;28;19912;-70
2024/01/02 06:23:14;;;;;;;;;;;30.90;95.50;;;;;;5116805;28;19915;-71
2024/01/02 06:25:41;;;;;;;;;;;31.00;95.50;;;;;;5116846;28;20382;-68
2024/01/02 06:28:08;;;;;;;;;;;31.10;95.60;;;;;;5116676;28;19922;-70
2024/01/02 06:30:34;;;;;;;;;;;31.00;95.70;;;;;;5116857;28;19915;-68
2024/01/02 06:33:01;;;;;;;;;;;30.90;95.70;;;;;;5116817;28;19961;-69
2024/01/02 06:35:28;;;;;;;;;;;31.00;96.50;;;;;;5116387;28;19934;-69
2024/01/02 06:37:54;;;;;;;;;;;31.10;95.60;;;;;;5116113;28;19908;-69
2024/01/02 06:40:21;;;;;;;;;;;30.60;96.10;;;;;;5116554;28;19922;-67
2024/01/02 06:42:47;;;;;;;;;;;30.20;96.80;;;;;;5116487;28;19947;-70
2024/01/02 06:45:14;;;;;;;;;;;30.00;97.20;;;;;;5116412;28;20002;-68
2024/01/02 06:47:41;;;;;;;;;;;30.10;97.50;;;;;;5116548;28;19962;-66
2024/01/02 06:50:07;;;;;;;;;;;30.10;97.70;;;;;;5116353;28;20019;-66
2024/01/02 06:52:34;;;;;;;;;;;29.90;98.00;;;;;;5093049;28;19951;-66
2024/01/02 06:55:01;;;;;;;;;;;29.70;98.70;;;;;;5096666;28;19971;-66
2024/01/02 06:57:28;;;;;;;;;;;29.50;98.40;;;;;;5095265;28;19953;-68
2024/01/02 06:59:54;;;;;;;;;;;29.20;99.00;;;;;;5095777;28;20327;-67
2024/01/02 07:02:21;;;;;;;;;;;29.10;99.80;;;;;;5095934;28;19961;-66
2024/01/02 07:04:48;;;;;;;;;;;29.20;99.60;;;;;;5095719;28;20003;-66
2024/01/02 07:07:14;;;;;;;;;;;28.90;99.90;;;;;;5095621;28;20375;-67
2024/01/02 07:09:41;;;;;;;;;;;28.50;99.90;;;;;;5095839;28;19912;-67
2024/01/02 07:12:07;;;;;;;;;;;28.30;99.90;;;;;;5095473;28;20262;-67
2024/01/02 07:14:34;;;;;;;;;;;27.90;99.90;;;;;;5095611;28;20315;-66
2024/01/02 07:17:01;;;;;;;;;;;27.70;99.90;;;;;;5095589;28;19931;-66
2024/01/02 07:19:27;;;;;;;;;;;27.50;99.90;;;;;;5095423;28;19917;-67
2024/01/02 07:21:54;;;;;;;;;;;27.40;99.90;;;;;;5095152;28;20628;-67
2024/01/02 07:24:20;;;;;;;;;;;27.30;99.90;;;;;;5095293;28;19908;-68
2024/01/02 07:26:47;;;;;;;;;;;27.10;99.90;;;;;;5095376;28;20323;-68
2024/01/02 07:29:14;;;;;;;;;;;26.90;99.90;;;;;;5095139;28;19916;-67
2024/01/02 07:31:40;;;;;;;;;;;26.80;99.90;;;;;;5095145;28;19961;-66
2024/01/02 07:34:07;;;;;;;;;;;26.70;99.90;;;;;;5095131;28;19908;-69
2024/01/02 07:36:34;;;;;;;;;;;26.70;99.90;;;;;;5095030;28;19943;-68
2024/01/02 07:39:00;;;;;;;;;;;26.60;99.90;;;;;;5094958;28;20006;-69
2024/01/02 07:41:27;;;;;;;;;;;26.70;99.90;;;;;;5093449;28;20268;-70
2024/01/02 07:43:53;;;;;;;;;;;26.80;99.90;;;;;;5094893;28;19908;-68
2024/01/02 07:46:20;;;;;;;;;;;26.60;99.90;;;;;;5094828;28;19969;-68
2024/01/02 07:48:47;;;;;;;;;;;26.60;99.90;;;;;;5095200;28;19908;-68
2024/01/02 07:51:13;;;;;;;;;;;26.70;99.90;;;;;;5094966;28;19942;-68
2024/01/02 07:53:40;;;;;;;;;;;26.50;99.90;;;;;;5094881;28;20395;-69
2024/01/02 07:56:06;;;;;;;;;;;26.60;99.90;;;;;;5094784;28;19968;-69
2024/01/02 07:58:33;;;;;;;;;;;26.60;99.90;;;;;;5094752;28;19922;-68
2024/01/02 08:01:00;;;;;;;;;;;26.50;99.90;;;;;;5094568;28;20273;-69
2024/01/02 08:03:26;;;;;;;;;;;26.50;99.90;;;;;;5094511;28;19908;-70
2024/01/02 08:05:53;;;;;;;;;;;26.50;99.90;;;;;;5094570;28;19919;-69
2024/01/02 08:08:20;;;;;;;;;;;26.40;99.90;;;;;;5094416;28;20300;-67
2024/01/02 08:10:46;;;;;;;;;;;26.40;99.90;;;;;;5094345;28;19912;-69
2024/01/02 08:13:13;;;;;;;;;;;26.30;99.90;;;;;;5094534;28;20331;-68
2024/01/02 08:15:39;;;;;;;;;;;26.30;99.90;;;;;;5094564;28;19940;-68
2024/01/02 08:18:06;;;;;;;;;;;26.10;99.90;;;;;;5094566;28;20371;-66
2024/01/02 08:20:33;;;;;;;;;;;26.00;99.90;;;;;;5094377;28;20429;-67
2024/01/02 08:22:59;;;;;;;;;;;26.10;99.90;;;;;;5094017;28;19912;-67
2024/01/02 08:25:26;;;;;;;;;;;26.00;99.90;;;;;;5094414;28;19908;-66
2024/01/02 08:27:53;;;;;;;;;;;26.00;99.90;;;;;;5094359;28;19954;-68
2024/01/02 08:30:19;;;;;;;;;;;26.00;99.90;;;;;;5094182;28;19908;-68
2024/01/02 08:32:46;;;;;;;;;;;25.90;99.90;;;;;;5094107;28;19915;-70
2024/01/02 08:35:13;;;;;;;;;;;25.80;99.90;;;;;;5091744;28;19912;-71
2024/01/02 08:37:41;;;;;;;;;;;25.80;99.90;;;;;;5093800;28;19995;-68
2024/01/02 08:40:08;;;;;;;;;;;25.70;99.90;;;;;;5094072;28;19961;-68
2024/01/02 08:42:37;;;;;;;;;;;25.60;99.90;;;;;;5093901;28;19912;-68
2024/01/02 08:45:05;;;;;;;;;;;25.50;99.90;;;;;;5093853;28;19915;-67
2024/01/02 08:47:33;;;;;;;;;;;25.50;99.90;;;;;;5093449;28;20389;-67
2024/01/02 08:50:00;;;;;;;;;;;25.50;99.90;;;;;;5093656;28;19991;-67
2024/01/02 08:52:26;;;;;;;;;;;25.30;99.90;;;;;;5075435;28;20376;-69
2024/01/02 08:54:53;;;;;;;;;;;25.30;99.90;;;;;;5093564;28;20404;-70
2024/01/02 08:57:19;;;;;;;;;;;25.30;99.90;;;;;;5093648;28;19999;-68
2024/01/02 08:59:46;;;;;;;;;;;25.20;99.90;;;;;;5093612;28;20349;-67
2024/01/02 09:02:13;;;;;;;;;;;25.20;99.90;;;;;;5093098;28;19914;-66
2024/01/02 09:04:39;;;;;;;;;;;25.20;99.90;;;;;;5093153;28;20353;-68
2024/01/02 09:07:06;;;;;;;;;;;25.30;99.90;;;;;;5093090;28;19914;-66
2024/01/02 09:09:33;;;;;;;;;;;25.20;99.90;;;;;;5093181;28;19908;-66
2024/01/02 09:12:00;;;;;;;;;;;25.10;99.90;;;;;;5092913;28;19912;-67
2024/01/02 09:14:27;;;;;;;;;;;25.00;99.90;;;;;;5093243;28;19908;-67
2024/01/02 09:16:54;;;;;;;;;;;24.80;99.90;;;;;;5093333;28;19909;-66
2024/01/02 09:19:20;;;;;;;;;;;24.80;99.90;;;;;;5091966;28;19916;-67
2024/01/02 09:21:47;;;;;;;;;;;24.80;99.90;;;;;;5093256;28;19917;-66
2024/01/02 09:24:14;;;;;;;;;;;24.80;99.90;;;;;;5093099;28;19908;-66
2024/01/02 09:26:44;;;;;;;;;;;24.80;99.90;;;;;;5092997;28;19919;-66
2024/01/02 09:29:11;;;;;;;;;;;24.80;99.90;;;;;;5092799;28;20287;-66
2024/01/02 09:31:40;;;;;;;;;;;24.80;99.90;;;;;;5092917;28;19915;-68
2024/01/02 09:34:06;;;;;;;;;;;24.80;99.90;;;;;;5093206;28;19908;-67
2024/01/02 09:36:33;;;;;;;;;;;24.80;99.90;;;;;;5092968;28;19923;-67
2024/01/02 09:39:00;;;;;;;;;;;24.80;99.90;;;;;;5092743;28;19912;-69
2024/01/02 09:41:33;;;;;;;;;;;24.90;99.90;;;;;;5092853;28;19912;-68
2024/01/02 09:44:06;;;;;;;;;;;24.90;99.90;;;;;;5092639;28;19962;-66
2024/01/02 09:46:55;;;;;;;;;;;24.80;99.90;;;;;;5092542;28;20002;-67
2024/01/02 09:49:35;;;;;;;;;;;24.70;99.90;;;;;;5092869;28;19916;-67
2024/01/02 09:52:14;;;;;;;;;;;24.60;99.90;;;;;;5075161;28;19994;-67
2024/01/02 09:55:01;;;;;;;;;;;24.70;99.90;;;;;;5092882;28;19924;-67
2024/01/02 09:57:47;;;;;;;;;;;24.60;99.90;;;;;;5067862;28;19953;-66
2024/01/02 10:00:22;;;;;;;;;;;24.70;99.90;;;;;;5093019;28;19967;-66
2024/01/02 10:02:52;;;;;;;;;;;24.70;99.90;;;;;;5093073;28;19916;-66
2024/01/02 10:05:18;;;;;;;;;;;24.70;99.90;;;;;;5092889;28;20368;-66
2024/01/02 10:08:02;;;;;;;;;;;24.60;99.90;;;;;;5092910;28;19912;-68
2024/01/02 10:10:36;;;;;;;;;;;24.60;99.90;;;;;;5093125;28;19912;-66
2024/01/02 10:13:18;;;;;;;;;;;24.60;99.90;;;;;;5092637;28;19908;-66
2024/01/02 10:15:47;;;;;;;;;;;24.60;99.90;;;;;;5092600;28;20404;-66
2024/01/02 10:18:22;;;;;;;;;;;24.50;99.90;;;;;;5092574;28;19915;-66
2024/01/02 10:21:01;;;;;;;;;;;24.50;99.90;;;;;;5092362;28;19928;-66
2024/01/02 10:23:33;;;;;;;;;;;24.40;99.90;;;;;;5092394;28;19915;-66
2024/01/02 10:26:03;;;;;;;;;;;24.40;99.90;;;;;;5092681;28;19909;-65
2024/01/02 10:28:30;;;;;;;;;;;24.30;99.90;;;;;;5092414;28;19955;-69
2024/01/02 10:30:59;;;;;;;;;;;24.40;99.90;;;;;;5092573;28;20011;-68
2024/01/02 10:33:38;;;;;;;;;;;24.30;99.90;;;;;;5092615;28;19995;-68
2024/01/02 10:36:06;;;;;;;;;;;24.30;99.90;;;;;;5092268;28;19908;-67
2024/01/02 10:38:35;;;;;;;;;;;24.30;99.90;;;;;;5092534;28;20323;-68
2024/01/02 10:41:10;;;;;;;;;;;24.30;99.90;;;;;;5092223;28;19999;-67
2024/01/02 10:43:48;;;;;;;;;;;24.40;99.90;;;;;;5092256;28;19934;-68
2024/01/02 10:46:41;;;;;;;;;;;24.40;99.90;;;;;;5092109;28;19908;-65
2024/01/02 10:49:17;;;;;;;;;;;24.40;99.90;;;;;;5061017;28;19923;-66
2024/01/02 10:51:47;;;;;;;;;;;24.30;99.90;;;;;;5091997;28;19915;-65
2024/01/02 10:54:28;;;;;;;;;;;24.30;99.90;;;;;;5091929;28;19965;-68
2024/01/02 10:57:01;;;;;;;;;;;24.30;99.90;;;;;;5092847;28;19958;-69
2024/01/02 10:59:31;;;;;;;;;;;24.30;99.90;;;;;;5095761;28;19923;-67
2024/01/02 11:02:06;;;;;;;;;;;24.30;99.90;;;;;;5095705;28;20425;-68
2024/01/02 11:04:54;;;;;;;;;;;24.30;99.90;;;;;;5095862;28;19915;-67
2024/01/02 11:07:22;;;;;;;;;;;24.30;99.90;;;;;;5095599;28;19908;-68
2024/01/02 11:10:02;;;;;;;;;;;24.30;99.90;;;;;;5095686;28;19915;-67
2024/01/02 11:12:35;;;;;;;;;;;24.20;99.90;;;;;;5095559;28;19912;-67
2024/01/02 11:15:03;;;;;;;;;;;24.20;99.90;;;;;;5095454;28;20460;-70
2024/01/02 11:17:32;;;;;;;;;;;24.30;99.90;;;;;;5095383;28;19915;-70
2024/01/02 11:20:03;;;;;;;;;;;24.30;99.90;;;;;;5095335;28;20980;-68
2024/01/02 11:22:35;;;;;;;;;;;24.30;99.90;;;;;;5077109;28;20360;-69
2024/01/02 11:25:03;;;;;;;;;;;24.30;99.90;;;;;;5095219;28;19908;-68
2024/01/02 11:27:30;;;;;;;;;;;24.30;99.90;;;;;;5095281;28;19908;-68
2024/01/02 11:29:57;;;;;;;;;;;24.40;99.90;;;;;;5095424;28;19908;-68
2024/01/02 11:32:32;;;;;;;;;;;24.40;99.90;;;;;;5095133;28;19909;-67
2024/01/02 11:35:00;;;;;;;;;;;24.40;99.90;;;;;;5095306;28;19908;-67
2024/01/02 11:37:30;;;;;;;;;;;24.40;99.90;;;;;;5095354;28;19908;-67
2024/01/02 11:39:56;;;;;;;;;;;24.50;99.90;;;;;;5094998;28;19916;-69
2024/01/02 11:42:34;;;;;;;;;;;24.50;99.90;;;;;;5094951;28;19908;-67
2024/01/02 11:45:27;;;;;;;;;;;24.50;99.90;;;;;;5094925;28;20327;-68
2024/01/02 11:48:12;;;;;;;;;;;24.50;99.90;;;;;;5073256;28;19908;-69
2024/01/02 11:51:14;;;;;;;;;;;24.50;99.90;;;;;;5094622;28;19912;-68
2024/01/02 11:53:56;;;;;;;;;;;24.50;99.90;;;;;;5012475;28;20001;-67
2024/01/02 11:56:23;;;;;;;;;;;24.50;99.90;;;;;;5087229;28;19927;-68
2024/01/02 11:59:10;;;;;;;;;;;24.50;99.90;;;;;;5094515;28;19908;-68
2024/01/02 12:01:37;;;;;;;;;;;24.50;99.90;;;;;;5088036;28;20371;-68
2024/01/02 12:04:10;;;;;;;;;;;24.40;99.90;;;;;;5107276;28;19957;-68
2024/01/02 12:06:52;;;;;;;;;;;24.40;99.90;;;;;;5102904;28;20412;-68
2024/01/02 12:09:19;;;;;;;;;;;24.50;99.90;;;;;;5109325;28;19915;-68
2024/01/02 12:11:48;;;;;;;;;;;24.50;99.90;;;;;;5114533;28;20395;-66
2024/01/02 12:14:17;;;;;;;;;;;24.40;99.90;;;;;;5114673;28;19915;-67
2024/01/02 12:16:45;;;;;;;;;;;24.30;99.90;;;;;;5114530;28;19907;-67
2024/01/02 12:19:16;;;;;;;;;;;24.20;99.90;;;;;;5114581;28;19938;-68
2024/01/02 12:21:44;;;;;;;;;;;24.30;99.90;;;;;;5114574;28;19908;-67
2024/01/02 12:24:14;;;;;;;;;;;24.20;99.90;;;;;;5114345;28;19908;-68
2024/01/02 12:26:42;;;;;;;;;;;24.20;99.90;;;;;;5114492;28;19961;-67
2024/01/02 12:29:10;;;;;;;;;;;24.20;99.90;;;;;;5114714;28;19969;-67
2024/01/02 12:31:49;;;;;;;;;;;24.10;99.90;;;;;;5114525;28;19962;-66
2024/01/02 12:34:16;;;;;;;;;;;24.10;99.90;;;;;;5114261;28;19908;-67
2024/01/02 12:36:47;;;;;;;;;;;24.10;99.90;;;;;;5114199;28;20352;-71
2024/01/02 12:39:16;;;;;;;;;;;24.10;99.90;;;;;;5114023;28;19919;-67
2024/01/02 12:41:51;;;;;;;;;;;24.10;99.90;;;;;;5114215;28;19914;-67
2024/01/02 12:44:22;;;;;;;;;;;24.10;99.90;;;;;;5114182;28;20406;-67
2024/01/02 12:46:53;;;;;;;;;;;24.10;99.90;;;;;;5095884;28;19951;-67
2024/01/02 12:49:24;;;;;;;;;;;24.10;99.90;;;;;;5113946;28;19908;-67
2024/01/02 12:51:51;;;;;;;;;;;24.10;99.90;;;;;;5114009;28;19931;-71
2024/01/02 12:54:22;;;;;;;;;;;24.00;99.90;;;;;;5113960;28;20001;-67
2024/01/02 12:56:55;;;;;;;;;;;24.10;99.90;;;;;;5113856;28;19912;-66
2024/01/02 12:59:27;;;;;;;;;;;24.00;99.90;;;;;;5113845;28;19916;-67
2024/01/02 13:01:54;;;;;;;;;;;24.00;99.90;;;;;;5113716;28;19911;-66
2024/01/02 13:04:21;;;;;;;;;;;24.00;99.90;;;;;;5113409;28;19950;-70
2024/01/02 13:06:48;;;;;;;;;;;24.10;99.90;;;;;;5113488;28;19939;-67
2024/01/02 13:09:18;;;;;;;;;;;24.00;99.90;;;;;;5113726;28;19908;-68
2024/01/02 13:11:44;;;;;;;;;;;23.90;99.90;;;;;;5113538;28;19908;-66
2024/01/02 13:14:11;;;;;;;;;;;23.90;99.90;;;;;;5113408;28;19907;-69
2024/01/02 13:16:41;;;;;;;;;;;23.90;99.90;;;;;;5113463;28;19908;-67
2024/01/02 13:19:13;;;;;;;;;;;23.90;99.90;;;;;;5113343;28;19915;-67
2024/01/02 13:21:41;;;;;;;;;;;23.90;99.90;;;;;;5113218;28;19908;-67
2024/01/02 13:24:09;;;;;;;;;;;23.90;99.90;;;;;;5095399;28;20261;-68
2024/01/02 13:26:47;;;;;;;;;;;23.90;99.90;;;;;;5113463;28;20006;-69
2024/01/02 13:29:15;;;;;;;;;;;23.80;99.90;;;;;;5113807;28;20284;-68
2024/01/02 13:31:42;;;;;;;;;;;23.80;99.90;;;;;;5113232;28;19919;-68
2024/01/02 13:34:22;;;;;;;;;;;23.90;99.90;;;;;;5113381;28;20413;-69
2024/01/02 13:36:49;;;;;;;;;;;23.80;99.90;;;;;;5113112;28;19912;-69
2024/01/02 13:39:34;;;;;;;;;;;23.80;99.90;;;;;;5113134;28;19912;-71
2024/01/02 13:42:04;;;;;;;;;;;23.80;99.90;;;;;;5113256;28;19908;-71
2024/01/02 13:44:34;;;;;;;;;;;23.70;99.90;;;;;;5094940;28;19918;-68
2024/01/02 13:47:01;;;;;;;;;;;23.70;99.90;;;;;;5112890;28;20369;-69
2024/01/02 13:49:44;;;;;;;;;;;23.70;99.90;;;;;;5112790;28;19908;-71
2024/01/02 13:52:11;;;;;;;;;;;23.70;99.90;;;;;;5112746;28;19908;-69
2024/01/02 13:54:42;;;;;;;;;;;23.80;99.90;;;;;;5112885;28;19916;-69
2024/01/02 13:57:08;;;;;;;;;;;23.70;99.90;;;;;;5113053;28;19915;-68
2024/01/02 13:59:35;;;;;;;;;;;23.80;99.90;;;;;;5112745;28;19922;-66
2024/01/02 14:02:12;;;;;;;;;;;23.80;99.90;;;;;;5112550;28;19908;-71
2024/01/02 14:04:41;;;;;;;;;;;23.70;99.90;;;;;;5113287;28;19908;-68
2024/01/02 14:07:07;;;;;;;;;;;23.70;99.90;;;;;;5113250;28;20349;-68
2024/01/02 14:09:34;;;;;;;;;;;23.70;99.90;;;;;;5113061;28;20375;-67
2024/01/02 14:12:05;;;;;;;;;;;23.70;99.90;;;;;;5112841;28;19961;-67
2024/01/02 14:14:47;;;;;;;;;;;23.60;99.90;;;;;;5112763;28;20368;-69
2024/01/02 14:17:15;;;;;;;;;;;23.70;99.90;;;;;;5112956;28;19915;-69
2024/01/02 14:19:44;;;;;;;;;;;23.60;99.90;;;;;;5113161;28;19974;-69
2024/01/02 14:22:34;;;;;;;;;;;23.60;99.90;;;;;;5112724;28;19907;-69
2024/01/02 14:25:07;;;;;;;;;;;23.50;99.90;;;;;;5065427;28;20326;-67